sensor_id;sensor_type;location;lat;lon;timestamp;temperature;humidity
40374;DHT22;26079;45.958;12.492;2024-03-02T00:02:01;9.60;99.90
40374;DHT22;26079;45.958;12.492;2024-03-02T00:04:26;9.50;99.90
40374;DHT22;26079;45.958;12.492;2024-03-02T00:06:53;9.50;99.90
40374;DHT22;26079;45.958;12.492;2024-03-02T00:09:21;9.40;99.90
40374;DHT22;26079;45.958;12.492;2024-03-02T00:11:47;9.40;99.90
40374;DHT22;26079;45.958;12.492;2024-03-02T00:14:13;9.50;99.90
40374;DHT22;26079;45.958;12.492;2024-03-02T00:16:38;9.60;99.90
40374;DHT22;26079;45.958;12.492;2024-03-02T00:19:06;9.60;99.90
40374;DHT22;26079;45.958;12.492;2024-03-02T00:21:33;9.60;99.90
40374;DHT22;26079;45.958;12.492;2024-03-02T00:23:59;9.70;99.90
40374;DHT22;26079;45.958;12.492;2024-03-02T00:26:25;9.70;99.90
40374;DHT22;26079;45.958;12.492;2024-03-02T00:28:55;9.80;99.90
40374;DHT22;26079;45.958;12.492;2024-03-02T00:31:22;9.80;99.90
40374;DHT22;26079;45.958;12.492;2024-03-02T00:33:48;9.80;99.90
40374;DHT22;26079;45.958;12.492;2024-03-02T00:36:25;9.80;99.90
40374;DHT22;26079;45.958;12.492;2024-03-02T00:38:53;9.80;99.90
40374;DHT22;26079;45.958;12.492;2024-03-02T00:41:31;9.80;99.90
40374;DHT22;26079;45.958;12.492;2024-03-02T00:46:23;9.80;99.90
40374;DHT22;26079;45.958;12.492;2024-03-02T00:48:57;9.80;99.90
40374;DHT22;26079;45.958;12.492;2024-03-02T00:51:25;9.80;99.90
40374;DHT22;26079;45.958;12.492;2024-03-02T00:53:53;9.70;99.90
40374;DHT22;26079;45.958;12.492;2024-03-02T00:56:22;9.70;99.90
40374;DHT22;26079;45.958;12.492;2024-03-02T00:58:49;9.70;99.90
40374;DHT22;26079;45.958;12.492;2024-03-02T01:01:14;9.60;99.90
40374;DHT22;26079;45.958;12.492;2024-03-02T01:03:42;9.60;99.90
40374;DHT22;26079;45.958;12.492;2024-03-02T01:06:08;9.60;99.90
40374;DHT22;26079;45.958;12.492;2024-03-02T01:08:37;9.60;99.90
40374;DHT22;26079;45.958;12.492;2024-03-02T01:11:03;9.70;99.90
40374;DHT22;26079;45.958;12.492;2024-03-02T01:13:29;9.70;99.90
40374;DHT22;26079;45.958;12.492;2024-03-02T01:15:55;9.80;99.90
40374;DHT22;26079;45.958;12.492;2024-03-02T01:18:21;9.70;99.90
40374;DHT22;26079;45.958;12.492;2024-03-02T01:20:47;9.80;99.90
40374;DHT22;26079;45.958;12.492;2024-03-02T01:23:13;9.80;99.90
40374;DHT22;26079;45.958;12.492;2024-03-02T01:25:39;9.80;99.90
40374;DHT22;26079;45.958;12.492;2024-03-02T01:28:05;9.80;99.90
40374;DHT22;26079;45.958;12.492;2024-03-02T01:30:31;9.80;99.90
40374;DHT22;26079;45.958;12.492;2024-03-02T01:32:57;9.80;99.90
40374;DHT22;26079;45.958;12.492;2024-03-02T01:35:24;9.80;99.90
40374;DHT22;26079;45.958;12.492;2024-03-02T01:37:50;9.80;99.90
40374;DHT22;26079;45.958;12.492;2024-03-02T01:40:16;9.90;99.90
40374;DHT22;26079;45.958;12.492;2024-03-02T01:42:43;9.90;99.90
40374;DHT22;26079;45.958;12.492;2024-03-02T01:45:09;9.90;99.90
40374;DHT22;26079;45.958;12.492;2024-03-02T01:47:35;9.90;99.90
40374;DHT22;26079;45.958;12.492;2024-03-02T01:50:01;10.00;99.90
40374;DHT22;26079;45.958;12.492;2024-03-02T01:52:27;9.90;99.90
40374;DHT22;26079;45.958;12.492;2024-03-02T01:54:53;10.00;99.90
40374;DHT22;26079;45.958;12.492;2024-03-02T01:57:19;10.00;99.90
40374;DHT22;26079;45.958;12.492;2024-03-02T01:59:45;10.00;99.90
40374;DHT22;26079;45.958;12.492;2024-03-02T02:02:14;10.00;99.90
40374;DHT22;26079;45.958;12.492;2024-03-02T02:04:40;9.90;99.90
40374;DHT22;26079;45.958;12.492;2024-03-02T02:07:06;9.90;99.90
40374;DHT22;26079;45.958;12.492;2024-03-02T02:09:32;9.90;99.90
40374;DHT22;26079;45.958;12.492;2024-03-02T02:11:58;9.90;99.90
40374;DHT22;26079;45.958;12.492;2024-03-02T02:14:24;9.90;99.90
40374;DHT22;26079;45.958;12.492;2024-03-02T02:16:50;9.90;99.90
40374;DHT22;26079;45.958;12.492;2024-03-02T02:19:16;9.90;99.90
40374;DHT22;26079;45.958;12.492;2024-03-02T02:21:44;9.90;99.90
40374;DHT22;26079;45.958;12.492;2024-03-02T02:24:10;9.90;99.90
40374;DHT22;26079;45.958;12.492;2024-03-02T02:26:36;10.00;99.90
40374;DHT22;26079;45.958;12.492;2024-03-02T02:29:02;10.00;99.90
40374;DHT22;26079;45.958;12.492;2024-03-02T02:31:37;10.00;99.90
40374;DHT22;26079;45.958;12.492;2024-03-02T02:34:03;10.10;99.90
40374;DHT22;26079;45.958;12.492;2024-03-02T02:36:28;10.20;99.90
40374;DHT22;26079;45.958;12.492;2024-03-02T02:38:54;10.10;99.90
40374;DHT22;26079;45.958;12.492;2024-03-02T02:41:20;10.10;99.90
40374;DHT22;26079;45.958;12.492;2024-03-02T02:43:46;10.10;99.90
40374;DHT22;26079;45.958;12.492;2024-03-02T02:46:12;10.10;99.90
40374;DHT22;26079;45.958;12.492;2024-03-02T02:48:37;10.00;99.90
40374;DHT22;26079;45.958;12.492;2024-03-02T02:51:03;10.00;99.90
40374;DHT22;26079;45.958;12.492;2024-03-02T02:53:29;10.00;99.90
40374;DHT22;26079;45.958;12.492;2024-03-02T02:55:54;9.90;99.90
40374;DHT22;26079;45.958;12.492;2024-03-02T02:58:20;9.90;99.90
40374;DHT22;26079;45.958;12.492;2024-03-02T03:00:46;9.80;99.90
40374;DHT22;26079;45.958;12.492;2024-03-02T03:03:12;9.70;99.90
40374;DHT22;26079;45.958;12.492;2024-03-02T03:05:37;9.70;99.90
40374;DHT22;26079;45.958;12.492;2024-03-02T03:08:03;9.60;99.90
40374;DHT22;26079;45.958;12.492;2024-03-02T03:10:29;9.60;99.90
40374;DHT22;26079;45.958;12.492;2024-03-02T03:12:55;9.60;99.90
40374;DHT22;26079;45.958;12.492;2024-03-02T03:15:21;9.50;99.90
40374;DHT22;26079;45.958;12.492;2024-03-02T03:17:47;9.50;99.90
40374;DHT22;26079;45.958;12.492;2024-03-02T03:20:13;9.50;99.90
40374;DHT22;26079;45.958;12.492;2024-03-02T03:22:40;9.40;99.90
40374;DHT22;26079;45.958;12.492;2024-03-02T03:25:06;9.40;99.90
40374;DHT22;26079;45.958;12.492;2024-03-02T03:27:35;9.50;99.90
40374;DHT22;26079;45.958;12.492;2024-03-02T03:30:01;9.50;99.90
40374;DHT22;26079;45.958;12.492;2024-03-02T03:32:28;9.50;99.90
40374;DHT22;26079;45.958;12.492;2024-03-02T03:34:53;9.50;99.90
40374;DHT22;26079;45.958;12.492;2024-03-02T03:37:19;9.60;99.90
40374;DHT22;26079;45.958;12.492;2024-03-02T03:39:45;9.60;99.90
40374;DHT22;26079;45.958;12.492;2024-03-02T03:42:11;9.60;99.90
40374;DHT22;26079;45.958;12.492;2024-03-02T03:44:36;9.60;99.90
40374;DHT22;26079;45.958;12.492;2024-03-02T03:47:02;9.60;99.90
40374;DHT22;26079;45.958;12.492;2024-03-02T03:49:28;9.70;99.90
40374;DHT22;26079;45.958;12.492;2024-03-02T03:51:53;9.70;99.90
40374;DHT22;26079;45.958;12.492;2024-03-02T03:54:19;9.60;99.90
40374;DHT22;26079;45.958;12.492;2024-03-02T03:56:45;9.60;99.90
40374;DHT22;26079;45.958;12.492;2024-03-02T03:59:11;9.60;99.90
40374;DHT22;26079;45.958;12.492;2024-03-02T04:01:37;9.70;99.90
40374;DHT22;26079;45.958;12.492;2024-03-02T04:04:03;9.60;99.90
40374;DHT22;26079;45.958;12.492;2024-03-02T04:06:29;9.60;99.90
40374;DHT22;26079;45.958;12.492;2024-03-02T04:08:55;9.60;99.90
40374;DHT22;26079;45.958;12.492;2024-03-02T04:11:21;9.60;99.90
40374;DHT22;26079;45.958;12.492;2024-03-02T04:13:46;9.60;99.90
40374;DHT22;26079;45.958;12.492;2024-03-02T04:16:12;9.60;99.90
40374;DHT22;26079;45.958;12.492;2024-03-02T04:18:38;9.60;99.90
40374;DHT22;26079;45.958;12.492;2024-03-02T04:21:05;9.60;99.90
40374;DHT22;26079;45.958;12.492;2024-03-02T04:23:31;9.70;99.90
40374;DHT22;26079;45.958;12.492;2024-03-02T04:25:56;9.70;99.90
40374;DHT22;26079;45.958;12.492;2024-03-02T04:28:22;9.70;99.90
40374;DHT22;26079;45.958;12.492;2024-03-02T04:30:48;9.70;99.90
40374;DHT22;26079;45.958;12.492;2024-03-02T04:33:13;9.70;99.90
40374;DHT22;26079;45.958;12.492;2024-03-02T04:35:39;9.70;99.90
40374;DHT22;26079;45.958;12.492;2024-03-02T04:38:05;9.70;99.90
40374;DHT22;26079;45.958;12.492;2024-03-02T04:40:31;9.70;99.90
40374;DHT22;26079;45.958;12.492;2024-03-02T04:42:57;9.70;99.90
40374;DHT22;26079;45.958;12.492;2024-03-02T04:45:24;9.80;99.90
40374;DHT22;26079;45.958;12.492;2024-03-02T04:47:50;9.80;99.90
40374;DHT22;26079;45.958;12.492;2024-03-02T04:50:16;9.80;99.90
40374;DHT22;26079;45.958;12.492;2024-03-02T04:52:41;9.80;99.90
40374;DHT22;26079;45.958;12.492;2024-03-02T04:55:07;9.80;99.90
40374;DHT22;26079;45.958;12.492;2024-03-02T04:57:45;9.80;99.90
40374;DHT22;26079;45.958;12.492;2024-03-02T05:00:12;9.80;99.90
40374;DHT22;26079;45.958;12.492;2024-03-02T05:02:38;9.80;99.90
40374;DHT22;26079;45.958;12.492;2024-03-02T05:05:04;9.90;99.90
40374;DHT22;26079;45.958;12.492;2024-03-02T05:07:30;9.90;99.90
40374;DHT22;26079;45.958;12.492;2024-03-02T05:09:55;9.90;99.90
40374;DHT22;26079;45.958;12.492;2024-03-02T05:12:21;9.90;99.90
40374;DHT22;26079;45.958;12.492;2024-03-02T05:15:06;9.90;99.90
40374;DHT22;26079;45.958;12.492;2024-03-02T05:17:32;9.90;99.90
40374;DHT22;26079;45.958;12.492;2024-03-02T05:19:58;9.90;99.90
40374;DHT22;26079;45.958;12.492;2024-03-02T05:22:24;9.90;99.90
40374;DHT22;26079;45.958;12.492;2024-03-02T05:24:50;9.90;99.90
40374;DHT22;26079;45.958;12.492;2024-03-02T05:27:16;9.90;99.90
40374;DHT22;26079;45.958;12.492;2024-03-02T05:29:41;9.90;99.90
40374;DHT22;26079;45.958;12.492;2024-03-02T05:32:07;10.00;99.90
40374;DHT22;26079;45.958;12.492;2024-03-02T05:34:33;10.00;99.90
40374;DHT22;26079;45.958;12.492;2024-03-02T05:37:01;10.00;99.90
40374;DHT22;26079;45.958;12.492;2024-03-02T05:39:27;9.90;99.90
40374;DHT22;26079;45.958;12.492;2024-03-02T05:41:52;9.80;99.90
40374;DHT22;26079;45.958;12.492;2024-03-02T05:44:18;9.80;99.90
40374;DHT22;26079;45.958;12.492;2024-03-02T05:46:45;9.70;99.90
40374;DHT22;26079;45.958;12.492;2024-03-02T05:49:11;9.60;99.90
40374;DHT22;26079;45.958;12.492;2024-03-02T05:51:36;9.60;99.90
40374;DHT22;26079;45.958;12.492;2024-03-02T05:54:02;9.60;99.90
40374;DHT22;26079;45.958;12.492;2024-03-02T05:56:28;9.60;99.90
40374;DHT22;26079;45.958;12.492;2024-03-02T05:58:54;9.60;99.90
40374;DHT22;26079;45.958;12.492;2024-03-02T06:01:47;9.50;99.90
40374;DHT22;26079;45.958;12.492;2024-03-02T06:04:16;9.50;99.90
40374;DHT22;26079;45.958;12.492;2024-03-02T06:06:42;9.50;99.90
40374;DHT22;26079;45.958;12.492;2024-03-02T06:09:08;9.40;99.90
40374;DHT22;26079;45.958;12.492;2024-03-02T06:11:37;9.40;99.90
40374;DHT22;26079;45.958;12.492;2024-03-02T06:14:07;9.40;99.90
40374;DHT22;26079;45.958;12.492;2024-03-02T06:16:33;9.40;99.90
40374;DHT22;26079;45.958;12.492;2024-03-02T06:19:01;9.40;99.90
40374;DHT22;26079;45.958;12.492;2024-03-02T06:21:28;9.40;99.90
40374;DHT22;26079;45.958;12.492;2024-03-02T06:23:54;9.40;99.90
40374;DHT22;26079;45.958;12.492;2024-03-02T06:26:20;9.40;99.90
40374;DHT22;26079;45.958;12.492;2024-03-02T06:28:46;9.50;99.90
40374;DHT22;26079;45.958;12.492;2024-03-02T06:31:12;9.50;99.90
40374;DHT22;26079;45.958;12.492;2024-03-02T06:33:38;9.50;99.90
40374;DHT22;26079;45.958;12.492;2024-03-02T06:36:04;9.50;99.90
40374;DHT22;26079;45.958;12.492;2024-03-02T06:38:30;9.50;99.90
40374;DHT22;26079;45.958;12.492;2024-03-02T06:40:58;9.50;99.90
40374;DHT22;26079;45.958;12.492;2024-03-02T06:43:24;9.50;99.90
40374;DHT22;26079;45.958;12.492;2024-03-02T06:45:51;9.50;99.90
40374;DHT22;26079;45.958;12.492;2024-03-02T06:48:17;9.60;99.90
40374;DHT22;26079;45.958;12.492;2024-03-02T06:50:49;9.60;99.90
40374;DHT22;26079;45.958;12.492;2024-03-02T06:53:15;9.60;99.90
40374;DHT22;26079;45.958;12.492;2024-03-02T06:55:43;9.70;99.90
40374;DHT22;26079;45.958;12.492;2024-03-02T06:58:13;9.70;99.90
40374;DHT22;26079;45.958;12.492;2024-03-02T07:00:41;9.70;99.90
40374;DHT22;26079;45.958;12.492;2024-03-02T07:03:07;9.70;99.90
40374;DHT22;26079;45.958;12.492;2024-03-02T07:05:33;9.80;99.90
40374;DHT22;26079;45.958;12.492;2024-03-02T07:07:58;9.80;99.90
40374;DHT22;26079;45.958;12.492;2024-03-02T07:10:24;9.90;99.90
40374;DHT22;26079;45.958;12.492;2024-03-02T07:12:50;9.90;99.90
40374;DHT22;26079;45.958;12.492;2024-03-02T07:15:16;10.00;99.90
40374;DHT22;26079;45.958;12.492;2024-03-02T07:17:55;10.20;99.90
40374;DHT22;26079;45.958;12.492;2024-03-02T07:20:21;10.10;99.90
40374;DHT22;26079;45.958;12.492;2024-03-02T07:22:47;10.20;99.90
40374;DHT22;26079;45.958;12.492;2024-03-02T07:25:13;10.20;99.90
40374;DHT22;26079;45.958;12.492;2024-03-02T07:27:39;10.30;99.90
40374;DHT22;26079;45.958;12.492;2024-03-02T07:30:06;10.40;99.90
40374;DHT22;26079;45.958;12.492;2024-03-02T07:32:31;10.50;99.90
40374;DHT22;26079;45.958;12.492;2024-03-02T07:34:57;10.60;99.90
40374;DHT22;26079;45.958;12.492;2024-03-02T07:37:23;10.70;99.90
40374;DHT22;26079;45.958;12.492;2024-03-02T07:39:50;10.80;99.90
40374;DHT22;26079;45.958;12.492;2024-03-02T07:42:16;10.80;99.90
40374;DHT22;26079;45.958;12.492;2024-03-02T07:44:43;10.90;99.90
40374;DHT22;26079;45.958;12.492;2024-03-02T07:47:09;10.90;99.90
40374;DHT22;26079;45.958;12.492;2024-03-02T07:49:35;11.00;99.90
40374;DHT22;26079;45.958;12.492;2024-03-02T07:52:01;11.00;99.90
40374;DHT22;26079;45.958;12.492;2024-03-02T07:54:26;11.00;99.90
40374;DHT22;26079;45.958;12.492;2024-03-02T07:56:52;11.00;99.90
40374;DHT22;26079;45.958;12.492;2024-03-02T07:59:18;11.10;99.90
40374;DHT22;26079;45.958;12.492;2024-03-02T08:01:44;11.10;99.90
40374;DHT22;26079;45.958;12.492;2024-03-02T08:04:10;11.30;99.90
40374;DHT22;26079;45.958;12.492;2024-03-02T08:06:35;11.40;99.90
40374;DHT22;26079;45.958;12.492;2024-03-02T08:09:01;11.50;99.90
40374;DHT22;26079;45.958;12.492;2024-03-02T08:11:27;11.60;99.90
40374;DHT22;26079;45.958;12.492;2024-03-02T08:13:53;11.70;99.90
40374;DHT22;26079;45.958;12.492;2024-03-02T08:16:22;11.70;99.90
40374;DHT22;26079;45.958;12.492;2024-03-02T08:18:49;11.70;99.90
40374;DHT22;26079;45.958;12.492;2024-03-02T08:21:15;11.70;99.90
40374;DHT22;26079;45.958;12.492;2024-03-02T08:23:41;11.70;99.90
40374;DHT22;26079;45.958;12.492;2024-03-02T08:26:08;11.70;99.90
40374;DHT22;26079;45.958;12.492;2024-03-02T08:28:34;11.60;99.90
40374;DHT22;26079;45.958;12.492;2024-03-02T08:31:00;11.70;99.90
40374;DHT22;26079;45.958;12.492;2024-03-02T08:33:26;11.70;99.90
40374;DHT22;26079;45.958;12.492;2024-03-02T08:35:51;11.70;99.90
40374;DHT22;26079;45.958;12.492;2024-03-02T08:38:17;11.70;99.90
40374;DHT22;26079;45.958;12.492;2024-03-02T08:40:44;11.70;99.90
40374;DHT22;26079;45.958;12.492;2024-03-02T08:43:10;11.80;99.90
40374;DHT22;26079;45.958;12.492;2024-03-02T08:45:36;11.80;99.90
40374;DHT22;26079;45.958;12.492;2024-03-02T08:48:02;11.70;99.90
40374;DHT22;26079;45.958;12.492;2024-03-02T08:50:28;11.60;99.90
40374;DHT22;26079;45.958;12.492;2024-03-02T08:52:53;11.60;99.90
40374;DHT22;26079;45.958;12.492;2024-03-02T08:55:19;11.60;99.90
40374;DHT22;26079;45.958;12.492;2024-03-02T08:57:45;11.60;99.90
40374;DHT22;26079;45.958;12.492;2024-03-02T09:00:11;11.60;99.90
40374;DHT22;26079;45.958;12.492;2024-03-02T09:02:37;11.60;99.90
40374;DHT22;26079;45.958;12.492;2024-03-02T09:05:03;11.60;99.90
40374;DHT22;26079;45.958;12.492;2024-03-02T09:07:29;11.60;99.90
40374;DHT22;26079;45.958;12.492;2024-03-02T09:09:55;11.50;99.90
40374;DHT22;26079;45.958;12.492;2024-03-02T09:12:21;11.50;99.90
40374;DHT22;26079;45.958;12.492;2024-03-02T09:14:47;11.50;99.90
40374;DHT22;26079;45.958;12.492;2024-03-02T09:17:12;11.50;99.90
40374;DHT22;26079;45.958;12.492;2024-03-02T09:19:39;11.50;99.90
40374;DHT22;26079;45.958;12.492;2024-03-02T09:22:05;11.60;99.90
40374;DHT22;26079;45.958;12.492;2024-03-02T09:24:32;11.60;99.90
40374;DHT22;26079;45.958;12.492;2024-03-02T09:26:59;11.70;99.90
40374;DHT22;26079;45.958;12.492;2024-03-02T09:29:24;11.70;99.90
40374;DHT22;26079;45.958;12.492;2024-03-02T09:31:50;11.70;99.90
40374;DHT22;26079;45.958;12.492;2024-03-02T09:34:16;11.70;99.90
40374;DHT22;26079;45.958;12.492;2024-03-02T09:36:42;11.70;99.90
40374;DHT22;26079;45.958;12.492;2024-03-02T09:39:09;11.70;99.90
40374;DHT22;26079;45.958;12.492;2024-03-02T09:41:38;11.60;99.90
40374;DHT22;26079;45.958;12.492;2024-03-02T09:44:05;11.70;99.90
40374;DHT22;26079;45.958;12.492;2024-03-02T09:46:31;11.70;99.90
40374;DHT22;26079;45.958;12.492;2024-03-02T09:48:57;11.70;99.90
40374;DHT22;26079;45.958;12.492;2024-03-02T09:51:23;11.70;99.90
40374;DHT22;26079;45.958;12.492;2024-03-02T09:53:49;11.80;99.90
40374;DHT22;26079;45.958;12.492;2024-03-02T09:56:15;11.80;99.90
40374;DHT22;26079;45.958;12.492;2024-03-02T09:58:44;11.80;99.90
40374;DHT22;26079;45.958;12.492;2024-03-02T10:01:10;11.90;99.90
40374;DHT22;26079;45.958;12.492;2024-03-02T10:03:37;11.90;99.90
40374;DHT22;26079;45.958;12.492;2024-03-02T10:06:22;11.90;99.90
40374;DHT22;26079;45.958;12.492;2024-03-02T10:08:48;11.90;99.90
40374;DHT22;26079;45.958;12.492;2024-03-02T10:11:35;12.00;99.90
40374;DHT22;26079;45.958;12.492;2024-03-02T10:14:11;12.00;99.90
40374;DHT22;26079;45.958;12.492;2024-03-02T10:16:38;12.00;99.90
40374;DHT22;26079;45.958;12.492;2024-03-02T10:19:23;12.00;99.90
40374;DHT22;26079;45.958;12.492;2024-03-02T10:21:50;12.00;99.90
40374;DHT22;26079;45.958;12.492;2024-03-02T10:24:21;12.00;99.90
40374;DHT22;26079;45.958;12.492;2024-03-02T10:26:48;12.00;99.90
40374;DHT22;26079;45.958;12.492;2024-03-02T10:29:14;12.10;99.90
40374;DHT22;26079;45.958;12.492;2024-03-02T10:31:41;12.20;99.90
40374;DHT22;26079;45.958;12.492;2024-03-02T10:34:09;12.20;99.90
40374;DHT22;26079;45.958;12.492;2024-03-02T10:36:35;12.30;99.90
40374;DHT22;26079;45.958;12.492;2024-03-02T10:39:06;12.40;99.90
40374;DHT22;26079;45.958;12.492;2024-03-02T10:41:35;12.50;99.90
40374;DHT22;26079;45.958;12.492;2024-03-02T10:44:06;12.50;99.90
40374;DHT22;26079;45.958;12.492;2024-03-02T10:46:33;12.60;99.90
40374;DHT22;26079;45.958;12.492;2024-03-02T10:49:01;12.60;99.90
40374;DHT22;26079;45.958;12.492;2024-03-02T10:51:28;12.50;99.90
40374;DHT22;26079;45.958;12.492;2024-03-02T10:53:57;12.40;99.90
40374;DHT22;26079;45.958;12.492;2024-03-02T10:56:34;12.20;99.90
40374;DHT22;26079;45.958;12.492;2024-03-02T11:01:33;12.00;99.90
40374;DHT22;26079;45.958;12.492;2024-03-02T11:04:02;12.10;99.90
40374;DHT22;26079;45.958;12.492;2024-03-02T11:06:30;12.20;99.90
40374;DHT22;26079;45.958;12.492;2024-03-02T11:09:00;12.30;99.90
40374;DHT22;26079;45.958;12.492;2024-03-02T11:11:32;12.30;99.90
40374;DHT22;26079;45.958;12.492;2024-03-02T11:14:02;12.50;99.90
40374;DHT22;26079;45.958;12.492;2024-03-02T11:16:37;12.40;99.90
40374;DHT22;26079;45.958;12.492;2024-03-02T11:19:13;12.30;99.90
40374;DHT22;26079;45.958;12.492;2024-03-02T11:21:39;12.20;99.90
40374;DHT22;26079;45.958;12.492;2024-03-02T11:26:53;12.10;99.90
40374;DHT22;26079;45.958;12.492;2024-03-02T11:32:17;12.20;99.90
40374;DHT22;26079;45.958;12.492;2024-03-02T11:34:45;12.20;99.90
40374;DHT22;26079;45.958;12.492;2024-03-02T11:37:12;12.20;99.90
40374;DHT22;26079;45.958;12.492;2024-03-02T11:39:39;12.20;99.90
40374;DHT22;26079;45.958;12.492;2024-03-02T11:42:06;12.10;99.90
40374;DHT22;26079;45.958;12.492;2024-03-02T11:44:35;12.10;99.90
40374;DHT22;26079;45.958;12.492;2024-03-02T11:47:02;12.10;99.90
40374;DHT22;26079;45.958;12.492;2024-03-02T11:52:12;12.00;99.90
40374;DHT22;26079;45.958;12.492;2024-03-02T11:54:39;12.00;99.90
40374;DHT22;26079;45.958;12.492;2024-03-02T11:57:08;11.90;99.90
40374;DHT22;26079;45.958;12.492;2024-03-02T11:59:34;11.90;99.90
40374;DHT22;26079;45.958;12.492;2024-03-02T12:02:00;11.80;99.90
40374;DHT22;26079;45.958;12.492;2024-03-02T12:04:26;11.80;99.90
40374;DHT22;26079;45.958;12.492;2024-03-02T12:07:10;11.80;99.90
40374;DHT22;26079;45.958;12.492;2024-03-02T12:09:36;11.80;99.90
40374;DHT22;26079;45.958;12.492;2024-03-02T12:12:04;11.80;99.90
40374;DHT22;26079;45.958;12.492;2024-03-02T12:14:30;11.90;99.90
40374;DHT22;26079;45.958;12.492;2024-03-02T12:16:56;12.00;99.90
40374;DHT22;26079;45.958;12.492;2024-03-02T12:19:24;12.10;99.90
40374;DHT22;26079;45.958;12.492;2024-03-02T12:21:51;12.10;99.90
40374;DHT22;26079;45.958;12.492;2024-03-02T12:24:17;12.10;99.90
40374;DHT22;26079;45.958;12.492;2024-03-02T12:26:43;12.10;99.90
40374;DHT22;26079;45.958;12.492;2024-03-02T12:29:09;12.20;99.90
40374;DHT22;26079;45.958;12.492;2024-03-02T12:31:35;12.40;99.90
40374;DHT22;26079;45.958;12.492;2024-03-02T12:34:02;12.50;99.90
40374;DHT22;26079;45.958;12.492;2024-03-02T12:36:28;12.50;99.90
40374;DHT22;26079;45.958;12.492;2024-03-02T12:38:54;12.50;99.90
40374;DHT22;26079;45.958;12.492;2024-03-02T12:41:21;12.50;99.90
40374;DHT22;26079;45.958;12.492;2024-03-02T12:43:46;12.50;99.90
40374;DHT22;26079;45.958;12.492;2024-03-02T12:46:12;12.50;99.90
40374;DHT22;26079;45.958;12.492;2024-03-02T12:48:38;12.50;99.90
40374;DHT22;26079;45.958;12.492;2024-03-02T12:51:07;12.60;99.90
40374;DHT22;26079;45.958;12.492;2024-03-02T12:53:33;12.70;99.90
40374;DHT22;26079;45.958;12.492;2024-03-02T12:55:59;12.80;99.90
40374;DHT22;26079;45.958;12.492;2024-03-02T12:58:25;12.80;99.90
40374;DHT22;26079;45.958;12.492;2024-03-02T13:01:06;12.80;99.90
40374;DHT22;26079;45.958;12.492;2024-03-02T13:03:38;12.90;99.90
40374;DHT22;26079;45.958;12.492;2024-03-02T13:06:05;12.90;99.90
40374;DHT22;26079;45.958;12.492;2024-03-02T13:08:32;12.90;99.90
40374;DHT22;26079;45.958;12.492;2024-03-02T13:10:58;12.90;99.90
40374;DHT22;26079;45.958;12.492;2024-03-02T13:13:24;12.70;99.90
40374;DHT22;26079;45.958;12.492;2024-03-02T13:15:49;12.60;99.90
40374;DHT22;26079;45.958;12.492;2024-03-02T13:18:17;12.70;99.90
40374;DHT22;26079;45.958;12.492;2024-03-02T13:20:43;12.60;99.90
40374;DHT22;26079;45.958;12.492;2024-03-02T13:23:09;12.40;99.90
40374;DHT22;26079;45.958;12.492;2024-03-02T13:25:35;12.30;99.90
40374;DHT22;26079;45.958;12.492;2024-03-02T13:28:01;12.30;99.90
40374;DHT22;26079;45.958;12.492;2024-03-02T13:30:28;12.40;99.90
40374;DHT22;26079;45.958;12.492;2024-03-02T13:32:54;12.40;99.90
40374;DHT22;26079;45.958;12.492;2024-03-02T13:35:20;12.40;99.90
40374;DHT22;26079;45.958;12.492;2024-03-02T13:37:46;12.40;99.90
40374;DHT22;26079;45.958;12.492;2024-03-02T13:40:11;12.40;99.90
40374;DHT22;26079;45.958;12.492;2024-03-02T13:42:43;12.50;99.90
40374;DHT22;26079;45.958;12.492;2024-03-02T13:45:09;12.60;99.90
40374;DHT22;26079;45.958;12.492;2024-03-02T13:47:34;12.60;99.90
40374;DHT22;26079;45.958;12.492;2024-03-02T13:50:00;12.70;99.90
40374;DHT22;26079;45.958;12.492;2024-03-02T13:52:28;12.70;99.90
40374;DHT22;26079;45.958;12.492;2024-03-02T13:54:53;12.70;99.90
40374;DHT22;26079;45.958;12.492;2024-03-02T13:57:19;12.70;99.90
40374;DHT22;26079;45.958;12.492;2024-03-02T13:59:45;12.60;99.90
40374;DHT22;26079;45.958;12.492;2024-03-02T14:02:12;12.50;99.90
40374;DHT22;26079;45.958;12.492;2024-03-02T14:04:38;12.60;99.90
40374;DHT22;26079;45.958;12.492;2024-03-02T14:07:04;12.50;99.90
40374;DHT22;26079;45.958;12.492;2024-03-02T14:09:33;12.40;99.90
40374;DHT22;26079;45.958;12.492;2024-03-02T14:11:59;12.30;99.90
40374;DHT22;26079;45.958;12.492;2024-03-02T14:14:28;12.30;99.90
40374;DHT22;26079;45.958;12.492;2024-03-02T14:16:54;12.20;99.90
40374;DHT22;26079;45.958;12.492;2024-03-02T14:19:31;12.20;99.90
40374;DHT22;26079;45.958;12.492;2024-03-02T14:21:57;12.10;99.90
40374;DHT22;26079;45.958;12.492;2024-03-02T14:24:23;12.00;99.90
40374;DHT22;26079;45.958;12.492;2024-03-02T14:26:53;12.10;99.90
40374;DHT22;26079;45.958;12.492;2024-03-02T14:29:19;12.10;99.90
40374;DHT22;26079;45.958;12.492;2024-03-02T14:31:44;12.10;99.90
40374;DHT22;26079;45.958;12.492;2024-03-02T14:34:14;12.00;99.90
40374;DHT22;26079;45.958;12.492;2024-03-02T14:36:40;12.10;99.90
40374;DHT22;26079;45.958;12.492;2024-03-02T14:39:08;12.00;99.90
40374;DHT22;26079;45.958;12.492;2024-03-02T14:41:36;12.00;99.90
40374;DHT22;26079;45.958;12.492;2024-03-02T14:44:02;11.90;99.90
40374;DHT22;26079;45.958;12.492;2024-03-02T14:46:28;11.80;99.90
40374;DHT22;26079;45.958;12.492;2024-03-02T14:48:53;11.70;99.90
40374;DHT22;26079;45.958;12.492;2024-03-02T14:51:19;11.70;99.90
40374;DHT22;26079;45.958;12.492;2024-03-02T14:53:45;11.70;99.90
40374;DHT22;26079;45.958;12.492;2024-03-02T14:56:11;11.70;99.90
40374;DHT22;26079;45.958;12.492;2024-03-02T14:58:38;11.60;99.90
40374;DHT22;26079;45.958;12.492;2024-03-02T15:01:04;11.70;99.90
40374;DHT22;26079;45.958;12.492;2024-03-02T15:03:31;11.80;99.90
40374;DHT22;26079;45.958;12.492;2024-03-02T15:05:58;11.90;99.90
40374;DHT22;26079;45.958;12.492;2024-03-02T15:08:23;11.90;99.90
40374;DHT22;26079;45.958;12.492;2024-03-02T15:10:50;11.90;99.90
40374;DHT22;26079;45.958;12.492;2024-03-02T15:13:16;11.90;99.90
40374;DHT22;26079;45.958;12.492;2024-03-02T15:15:41;11.90;99.90
40374;DHT22;26079;45.958;12.492;2024-03-02T15:18:07;11.90;99.90
40374;DHT22;26079;45.958;12.492;2024-03-02T15:20:34;11.90;99.90
40374;DHT22;26079;45.958;12.492;2024-03-02T15:23:00;11.90;99.90
40374;DHT22;26079;45.958;12.492;2024-03-02T15:25:25;11.90;99.90
40374;DHT22;26079;45.958;12.492;2024-03-02T15:27:51;11.90;99.90
40374;DHT22;26079;45.958;12.492;2024-03-02T15:30:17;11.90;99.90
40374;DHT22;26079;45.958;12.492;2024-03-02T15:32:43;11.90;99.90
40374;DHT22;26079;45.958;12.492;2024-03-02T15:35:08;11.80;99.90